sensor_id;sensor_type;location;lat;lon;timestamp;temperature;humidity
57719;DHT22;43561;50.090;18.522;2023-03-08T00:09:57;4.60;99.90
57719;DHT22;43561;50.090;18.522;2023-03-08T00:19:59;4.60;99.90
57719;DHT22;43561;50.090;18.522;2023-03-08T00:30:02;4.50;99.90
57719;DHT22;43561;50.090;18.522;2023-03-08T00:40:04;4.50;99.90
57719;DHT22;43561;50.090;18.522;2023-03-08T00:50:09;4.50;99.90
57719;DHT22;43561;50.090;18.522;2023-03-08T01:00:11;4.40;99.90
57719;DHT22;43561;50.090;18.522;2023-03-08T01:10:14;4.30;99.90
57719;DHT22;43561;50.090;18.522;2023-03-08T01:20:16;4.20;99.90
57719;DHT22;43561;50.090;18.522;2023-03-08T01:30:18;4.20;99.90
57719;DHT22;43561;50.090;18.522;2023-03-08T01:40:21;4.20;99.90
57719;DHT22;43561;50.090;18.522;2023-03-08T01:50:23;4.20;99.90
57719;DHT22;43561;50.090;18.522;2023-03-08T02:00:25;4.10;99.90
57719;DHT22;43561;50.090;18.522;2023-03-08T02:10:28;4.10;99.90
57719;DHT22;43561;50.090;18.522;2023-03-08T02:20:38;4.00;99.90
57719;DHT22;43561;50.090;18.522;2023-03-08T02:30:41;3.90;99.90
57719;DHT22;43561;50.090;18.522;2023-03-08T02:40:43;3.80;99.90
57719;DHT22;43561;50.090;18.522;2023-03-08T02:50:46;3.80;99.90
57719;DHT22;43561;50.090;18.522;2023-03-08T03:00:47;3.70;99.90
57719;DHT22;43561;50.090;18.522;2023-03-08T03:10:49;3.70;99.90
57719;DHT22;43561;50.090;18.522;2023-03-08T03:20:52;3.60;99.90
57719;DHT22;43561;50.090;18.522;2023-03-08T03:30:54;3.60;99.90
57719;DHT22;43561;50.090;18.522;2023-03-08T03:41:05;3.70;99.90
57719;DHT22;43561;50.090;18.522;2023-03-08T03:51:15;3.60;99.90
57719;DHT22;43561;50.090;18.522;2023-03-08T04:01:24;3.50;99.90
57719;DHT22;43561;50.090;18.522;2023-03-08T04:11:34;3.50;99.90
57719;DHT22;43561;50.090;18.522;2023-03-08T04:21:37;3.60;99.90
57719;DHT22;43561;50.090;18.522;2023-03-08T04:31:39;3.50;99.90
57719;DHT22;43561;50.090;18.522;2023-03-08T04:41:45;3.40;99.90
57719;DHT22;43561;50.090;18.522;2023-03-08T04:51:59;3.40;99.90
57719;DHT22;43561;50.090;18.522;2023-03-08T05:02:02;3.30;99.90
57719;DHT22;43561;50.090;18.522;2023-03-08T05:12:07;3.30;99.90
57719;DHT22;43561;50.090;18.522;2023-03-08T05:22:18;3.30;99.90
57719;DHT22;43561;50.090;18.522;2023-03-08T05:32:23;3.20;99.90
57719;DHT22;43561;50.090;18.522;2023-03-08T05:42:26;3.20;99.90
57719;DHT22;43561;50.090;18.522;2023-03-08T05:52:29;3.00;99.90
57719;DHT22;43561;50.090;18.522;2023-03-08T06:02:35;3.00;99.90
57719;DHT22;43561;50.090;18.522;2023-03-08T06:12:37;3.60;99.90
57719;DHT22;43561;50.090;18.522;2023-03-08T06:22:41;3.60;99.90
57719;DHT22;43561;50.090;18.522;2023-03-08T06:32:44;3.60;99.90
57719;DHT22;43561;50.090;18.522;2023-03-08T06:42:46;4.90;99.90
57719;DHT22;43561;50.090;18.522;2023-03-08T06:52:49;5.10;99.30
57719;DHT22;43561;50.090;18.522;2023-03-08T07:02:58;6.20;95.90
57719;DHT22;43561;50.090;18.522;2023-03-08T07:13:00;6.60;92.80
57719;DHT22;43561;50.090;18.522;2023-03-08T07:23:02;7.40;90.80
57719;DHT22;43561;50.090;18.522;2023-03-08T07:33:03;7.60;85.60
57719;DHT22;43561;50.090;18.522;2023-03-08T07:43:06;8.30;79.00
57719;DHT22;43561;50.090;18.522;2023-03-08T07:53:23;8.30;76.60
57719;DHT22;43561;50.090;18.522;2023-03-08T08:03:25;8.80;75.20
57719;DHT22;43561;50.090;18.522;2023-03-08T08:13:29;9.00;76.10
57719;DHT22;43561;50.090;18.522;2023-03-08T08:23:31;9.80;71.90
57719;DHT22;43561;50.090;18.522;2023-03-08T08:33:33;9.90;72.80
57719;DHT22;43561;50.090;18.522;2023-03-08T08:43:36;9.00;77.70
57719;DHT22;43561;50.090;18.522;2023-03-08T08:53:38;9.80;77.20
57719;DHT22;43561;50.090;18.522;2023-03-08T09:03:40;10.40;69.00
57719;DHT22;43561;50.090;18.522;2023-03-08T09:13:41;10.10;67.60
57719;DHT22;43561;50.090;18.522;2023-03-08T09:23:44;9.90;68.10
57719;DHT22;43561;50.090;18.522;2023-03-08T09:33:49;9.60;68.90
57719;DHT22;43561;50.090;18.522;2023-03-08T09:54:32;10.30;69.20
57719;DHT22;43561;50.090;18.522;2023-03-08T10:15:17;10.10;69.30
57719;DHT22;43561;50.090;18.522;2023-03-08T10:25:26;9.70;74.10
57719;DHT22;43561;50.090;18.522;2023-03-08T10:35:38;10.70;64.90
57719;DHT22;43561;50.090;18.522;2023-03-08T10:46:05;10.50;61.70
57719;DHT22;43561;50.090;18.522;2023-03-08T10:56:25;10.30;60.40
57719;DHT22;43561;50.090;18.522;2023-03-08T11:06:28;9.90;60.40
57719;DHT22;43561;50.090;18.522;2023-03-08T12:09:05;9.90;59.40
57719;DHT22;43561;50.090;18.522;2023-03-08T12:29:59;9.70;60.80
57719;DHT22;43561;50.090;18.522;2023-03-08T12:40:05;9.60;59.90
57719;DHT22;43561;50.090;18.522;2023-03-08T12:50:13;9.90;59.10
57719;DHT22;43561;50.090;18.522;2023-03-08T13:00:31;9.60;59.30
57719;DHT22;43561;50.090;18.522;2023-03-08T13:10:36;9.30;59.00
57719;DHT22;43561;50.090;18.522;2023-03-08T13:40:55;9.00;58.00
57719;DHT22;43561;50.090;18.522;2023-03-08T13:50:58;9.00;58.90
57719;DHT22;43561;50.090;18.522;2023-03-08T14:01:10;9.10;58.00
57719;DHT22;43561;50.090;18.522;2023-03-08T14:11:21;9.10;58.20
57719;DHT22;43561;50.090;18.522;2023-03-08T14:21:28;8.90;58.80
57719;DHT22;43561;50.090;18.522;2023-03-08T14:31:30;8.80;58.70
57719;DHT22;43561;50.090;18.522;2023-03-08T14:41:35;8.50;58.10
57719;DHT22;43561;50.090;18.522;2023-03-08T14:51:39;8.50;59.10
57719;DHT22;43561;50.090;18.522;2023-03-08T15:01:41;8.30;59.10
57719;DHT22;43561;50.090;18.522;2023-03-08T15:11:45;8.20;60.20
57719;DHT22;43561;50.090;18.522;2023-03-08T15:21:48;8.10;60.90
57719;DHT22;43561;50.090;18.522;2023-03-08T15:31:51;8.00;63.10
57719;DHT22;43561;50.090;18.522;2023-03-08T15:41:53;7.90;65.80
57719;DHT22;43561;50.090;18.522;2023-03-08T15:51:55;7.80;67.90
57719;DHT22;43561;50.090;18.522;2023-03-08T16:01:57;7.80;71.50
57719;DHT22;43561;50.090;18.522;2023-03-08T16:11:59;7.50;84.20
57719;DHT22;43561;50.090;18.522;2023-03-08T16:22:02;7.20;96.70
57719;DHT22;43561;50.090;18.522;2023-03-08T16:32:04;6.90;99.90
57719;DHT22;43561;50.090;18.522;2023-03-08T16:42:11;6.90;99.90
57719;DHT22;43561;50.090;18.522;2023-03-08T16:52:14;6.80;99.90
57719;DHT22;43561;50.090;18.522;2023-03-08T17:02:18;6.60;99.90
57719;DHT22;43561;50.090;18.522;2023-03-08T17:12:22;6.70;99.90
57719;DHT22;43561;50.090;18.522;2023-03-08T17:22:24;6.70;99.90
57719;DHT22;43561;50.090;18.522;2023-03-08T17:32:25;6.50;99.90
57719;DHT22;43561;50.090;18.522;2023-03-08T17:42:27;6.60;99.90
57719;DHT22;43561;50.090;18.522;2023-03-08T17:52:30;6.50;99.90
57719;DHT22;43561;50.090;18.522;2023-03-08T18:02:32;6.50;99.90
57719;DHT22;43561;50.090;18.522;2023-03-08T18:12:34;6.50;99.90
57719;DHT22;43561;50.090;18.522;2023-03-08T18:22:36;6.50;99.90
57719;DHT22;43561;50.090;18.522;2023-03-08T18:32:39;6.50;99.90
57719;DHT22;43561;50.090;18.522;2023-03-08T18:42:41;6.50;99.90
57719;DHT22;43561;50.090;18.522;2023-03-08T18:52:43;6.60;99.90
57719;DHT22;43561;50.090;18.522;2023-03-08T19:02:45;6.70;99.90
57719;DHT22;43561;50.090;18.522;2023-03-08T19:12:47;6.60;99.90
57719;DHT22;43561;50.090;18.522;2023-03-08T19:22:49;6.60;99.90
57719;DHT22;43561;50.090;18.522;2023-03-08T19:32:51;6.60;99.90
57719;DHT22;43561;50.090;18.522;2023-03-08T19:42:54;6.50;99.90
57719;DHT22;43561;50.090;18.522;2023-03-08T19:52:56;6.70;99.90
57719;DHT22;43561;50.090;18.522;2023-03-08T20:02:58;6.80;99.90
57719;DHT22;43561;50.090;18.522;2023-03-08T20:13:00;6.90;99.90
57719;DHT22;43561;50.090;18.522;2023-03-08T20:23:02;7.00;99.90
57719;DHT22;43561;50.090;18.522;2023-03-08T20:33:04;7.00;99.90
57719;DHT22;43561;50.090;18.522;2023-03-08T20:43:06;7.00;99.90
57719;DHT22;43561;50.090;18.522;2023-03-08T20:53:07;7.10;99.90
57719;DHT22;43561;50.090;18.522;2023-03-08T21:03:10;7.30;99.90
57719;DHT22;43561;50.090;18.522;2023-03-08T21:13:12;7.40;99.90
57719;DHT22;43561;50.090;18.522;2023-03-08T21:23:15;7.50;99.90
57719;DHT22;43561;50.090;18.522;2023-03-08T21:33:17;7.50;99.90
57719;DHT22;43561;50.090;18.522;2023-03-08T21:43:18;7.60;99.90
57719;DHT22;43561;50.090;18.522;2023-03-08T21:53:20;7.70;99.90
57719;DHT22;43561;50.090;18.522;2023-03-08T22:03:22;7.70;99.90
57719;DHT22;43561;50.090;18.522;2023-03-08T22:13:24;7.80;99.90
57719;DHT22;43561;50.090;18.522;2023-03-08T22:23:26;7.70;99.90
57719;DHT22;43561;50.090;18.522;2023-03-08T22:33:29;7.80;99.90
57719;DHT22;43561;50.090;18.522;2023-03-08T22:43:31;7.80;99.90
57719;DHT22;43561;50.090;18.522;2023-03-08T22:53:33;7.80;99.90
57719;DHT22;43561;50.090;18.522;2023-03-08T23:03:34;7.90;99.90
57719;DHT22;43561;50.090;18.522;2023-03-08T23:13:37;7.70;99.90
57719;DHT22;43561;50.090;18.522;2023-03-08T23:34:56;7.50;99.90
57719;DHT22;43561;50.090;18.522;2023-03-08T23:44:58;7.50;99.90
57719;DHT22;43561;50.090;18.522;2023-03-08T23:55:00;7.60;99.90
